Time;durP1;ratioP1;P1;durP2;ratioP2;P2;SDS_P1;SDS_P2;PMS_P1;PMS_P2;Temp;Humidity;BMP_temperature;BMP_pressure;BME280_temperature;BME280_humidity;BME280_pressure;Samples;Min_cycle;Max_cycle;Signal;HPM_P1;HPM_P2
2022/09/13 00:00:58;;;;;;;9.20;2.45;;;;;;;9.29;100.00;100870.81;5003042;28;20107;-76
2022/09/13 00:03:24;;;;;;;5.10;2.40;;;;;;;9.29;100.00;100873.50;5009658;28;20029;-75
2022/09/13 00:05:49;;;;;;;6.25;2.25;;;;;;;9.24;100.00;100869.47;4975257;28;20127;-76
2022/09/13 00:08:15;;;;;;;10.45;2.58;;;;;;;9.22;100.00;100868.81;4970001;28;20038;-76
2022/09/13 00:10:42;;;;;;;7.47;4.00;;;;;;;9.22;100.00;100865.28;5019924;28;20172;-76
2022/09/13 00:13:09;;;;;;;6.80;2.55;;;;;;;9.19;100.00;100858.41;4990603;28;20129;-75
2022/09/13 00:15:35;;;;;;;9.45;2.65;;;;;;;9.27;100.00;100867.47;4988432;28;20674;-78
2022/09/13 00:18:01;;;;;;;6.05;2.28;;;;;;;9.18;100.00;100853.19;5009342;28;20083;-77
2022/09/13 00:20:27;;;;;;;6.47;2.72;;;;;;;9.21;100.00;100868.97;5006297;28;20042;-76
2022/09/13 00:22:53;;;;;;;6.07;2.50;;;;;;;9.18;100.00;100880.00;5007536;28;20025;-76
2022/09/13 00:25:18;;;;;;;8.55;2.47;;;;;;;9.34;100.00;100884.56;5004182;28;20064;-75
2022/09/13 00:27:44;;;;;;;9.77;3.20;;;;;;;9.10;100.00;100847.81;4992285;28;20037;-76
2022/09/13 00:30:11;;;;;;;5.88;2.63;;;;;;;9.11;100.00;100862.91;5002452;28;20053;-76
2022/09/13 00:32:37;;;;;;;6.88;3.60;;;;;;;9.05;100.00;100864.41;5005303;28;20041;-75
2022/09/13 00:35:05;;;;;;;8.00;2.38;;;;;;;8.92;100.00;100874.75;4995027;28;20399;-74
2022/09/13 00:37:32;;;;;;;3.20;1.83;;;;;;;9.03;100.00;100864.56;4994150;28;20045;-74
2022/09/13 00:39:58;;;;;;;8.80;3.25;;;;;;;9.02;100.00;100854.00;5004748;28;20061;-77
2022/09/13 00:42:25;;;;;;;8.27;2.70;;;;;;;9.15;100.00;100869.63;5003990;28;20026;-76
2022/09/13 00:45:09;;;;;;;7.93;2.75;;;;;;;9.16;100.00;100882.88;5006970;28;20488;-75
2022/09/13 00:47:39;;;;;;;4.80;2.03;;;;;;;9.05;100.00;100877.81;4990941;28;20444;-76
2022/09/13 00:50:36;;;;;;;8.68;2.40;;;;;;;9.04;100.00;100876.13;5005306;28;20029;-75
2022/09/13 00:53:06;;;;;;;6.10;2.10;;;;;;;9.09;100.00;100884.53;4980566;28;20129;-77
2022/09/13 00:55:53;;;;;;;9.48;2.10;;;;;;;9.12;100.00;100878.00;5000633;28;20049;-75
2022/09/13 00:58:45;;;;;;;8.93;2.67;;;;;;;9.06;100.00;100884.03;4992135;28;20037;-76
2022/09/13 01:01:14;;;;;;;7.68;2.60;;;;;;;8.83;100.00;100865.81;4984850;28;20185;-75
2022/09/13 01:03:44;;;;;;;7.82;2.47;;;;;;;8.68;100.00;100870.97;5006304;28;20029;-75
2022/09/13 01:06:14;;;;;;;10.02;2.35;;;;;;;8.62;100.00;100884.16;4978219;28;20041;-75
2022/09/13 01:08:42;;;;;;;5.97;2.30;;;;;;;8.51;100.00;100899.53;4973314;28;20037;-75
2022/09/13 01:11:12;;;;;;;5.88;2.10;;;;;;;8.36;100.00;100880.50;4990488;28;20507;-75
2022/09/13 01:13:38;;;;;;;7.63;2.15;;;;;;;8.26;100.00;100895.00;5004216;28;20472;-75
2022/09/13 01:16:04;;;;;;;6.78;2.20;;;;;;;8.21;100.00;100897.31;4991338;28;20068;-75
2022/09/13 01:18:30;;;;;;;6.22;2.22;;;;;;;8.19;100.00;100893.94;5005434;28;20491;-75
2022/09/13 01:20:55;;;;;;;8.60;1.90;;;;;;;8.11;100.00;100894.72;5008268;28;20025;-74
2022/09/13 01:23:49;;;;;;;8.90;2.22;;;;;;;8.09;100.00;100900.22;4986198;28;20208;-76
2022/09/13 01:26:34;;;;;;;6.13;1.77;;;;;;;7.92;100.00;100895.75;5006214;28;20527;-75
2022/09/13 01:29:29;;;;;;;7.05;2.30;;;;;;;7.81;100.00;100902.19;4970648;28;20034;-75
2022/09/13 01:32:28;;;;;;;5.18;2.17;;;;;;;7.55;100.00;100879.88;4969178;28;20042;-75
2022/09/13 01:35:11;;;;;;;9.55;2.15;;;;;;;7.59;100.00;100903.47;5000149;28;20033;-74
2022/09/13 01:38:09;;;;;;;5.82;2.00;;;;;;;7.40;100.00;100876.88;4983940;28;20126;-74
2022/09/13 01:41:12;;;;;;;8.15;2.38;;;;;;;7.54;100.00;100902.25;5002820;28;20038;-75
2022/09/13 01:43:45;;;;;;;9.85;2.25;;;;;;;7.45;100.00;100902.19;5009478;28;20469;-75
2022/09/13 01:46:17;;;;;;;4.82;2.00;;;;;;;7.40;100.00;100904.47;4974148;28;20045;-75
2022/09/13 01:48:49;;;;;;;3.45;1.58;;;;;;;7.23;100.00;100865.19;4993288;28;20041;-75
2022/09/13 01:51:41;;;;;;;9.90;2.45;;;;;;;7.63;100.00;100906.72;5006654;28;20029;-75
2022/09/13 01:54:13;;;;;;;7.65;2.65;;;;;;;7.58;100.00;100912.50;4991528;28;20101;-75
2022/09/13 01:57:08;;;;;;;5.35;2.15;;;;;;;7.49;100.00;100900.91;4988387;28;20076;-74
2022/09/13 01:59:56;;;;;;;6.75;2.38;;;;;;;7.37;100.00;100910.13;5011747;28;20061;-75
2022/09/13 02:02:32;;;;;;;6.63;2.58;;;;;;;7.26;100.00;100921.03;5008972;28;20469;-75
2022/09/13 02:05:21;;;;;;;8.95;2.92;;;;;;;7.03;100.00;100908.06;4981870;28;20088;-75
2022/09/13 02:07:54;;;;;;;4.70;1.38;;;;;;;7.07;100.00;100919.31;4958186;28;20104;-78
2022/09/13 02:10:25;;;;;;;6.32;2.10;;;;;;;7.37;100.00;100909.28;4967674;28;20033;-75
2022/09/13 02:12:52;;;;;;;6.35;2.47;;;;;;;7.46;100.00;100913.72;5008438;28;20042;-75
2022/09/13 02:15:22;;;;;;;10.25;2.53;;;;;;;7.36;100.00;100907.63;4990718;28;20036;-75
2022/09/13 02:17:53;;;;;;;7.93;2.20;;;;;;;7.29;100.00;100910.03;5009583;28;20036;-75
2022/09/13 02:20:24;;;;;;;6.38;1.90;;;;;;;7.24;100.00;100901.63;4992940;28;20052;-77
2022/09/13 02:22:54;;;;;;;4.90;2.58;;;;;;;7.34;100.00;100896.22;4992751;28;20040;-76
2022/09/13 02:25:22;;;;;;;7.70;1.88;;;;;;;7.39;100.00;100908.16;4995708;28;20468;-76
2022/09/13 02:27:50;;;;;;;11.32;2.03;;;;;;;7.29;100.00;100887.81;4992234;28;20038;-76
2022/09/13 02:30:17;;;;;;;6.63;2.35;;;;;;;7.44;100.00;100895.16;4988398;28;20033;-75
2022/09/13 02:32:56;;;;;;;5.90;1.63;;;;;;;7.54;100.00;100894.22;4992848;28;20120;-76
2022/09/13 02:35:42;;;;;;;6.43;1.80;;;;;;;7.61;100.00;100897.97;5011630;28;20026;-74
2022/09/13 02:38:30;;;;;;;4.60;2.08;;;;;;;7.61;100.00;100892.63;5002200;28;20104;-75
2022/09/13 02:41:00;;;;;;;10.18;2.38;;;;;;;7.61;100.00;100889.97;5020411;28;20038;-76
2022/09/13 02:43:33;;;;;;;8.55;2.88;;;;;;;7.58;100.00;100900.97;4998695;28;20030;-75
2022/09/13 02:46:09;;;;;;;5.55;2.90;;;;;;;7.60;100.00;100891.78;4977081;28;20034;-75
2022/09/13 02:48:38;;;;;;;8.40;2.42;;;;;;;7.66;100.00;100901.03;4991521;28;20779;-75
2022/09/13 02:51:16;;;;;;;2.95;2.15;;;;;;;7.75;100.00;100896.59;5009290;28;20122;-74
2022/09/13 02:54:24;;;;;;;4.30;1.65;;;;;;;7.88;100.00;100886.34;5006318;28;20077;-76
2022/09/13 02:57:19;;;;;;;9.60;2.42;;;;;;;8.00;100.00;100885.09;5006321;28;20331;-75
2022/09/13 02:59:45;;;;;;;7.70;1.98;;;;;;;8.12;100.00;100883.00;5003031;28;20045;-75
2022/09/13 03:02:14;;;;;;;9.93;2.88;;;;;;;8.11;100.00;100882.16;4971878;28;20034;-76
2022/09/13 03:04:40;;;;;;;7.28;2.45;;;;;;;8.11;100.00;100881.31;5008906;28;20049;-75
2022/09/13 03:07:13;;;;;;;6.82;2.00;;;;;;;8.15;100.00;100880.88;4973814;28;20030;-75
2022/09/13 03:09:46;;;;;;;6.45;2.08;;;;;;;8.25;100.00;100877.22;5014676;28;20065;-75
2022/09/13 03:12:17;;;;;;;7.68;2.17;;;;;;;8.24;100.00;100878.25;4985117;28;20038;-75
2022/09/13 03:14:58;;;;;;;5.70;2.25;;;;;;;8.26;100.00;100887.78;5018873;28;20098;-75
2022/09/13 03:17:24;;;;;;;4.38;2.15;;;;;;;8.36;100.00;100893.03;5002661;28;20095;-76
2022/09/13 03:20:06;;;;;;;7.82;2.25;;;;;;;8.35;100.00;100889.50;4990394;28;20038;-74
2022/09/13 03:22:52;;;;;;;5.10;1.90;;;;;;;8.33;100.00;100886.16;5004005;28;20046;-74
2022/09/13 03:25:41;;;;;;;3.28;1.58;;;;;;;8.38;100.00;100886.50;5010035;28;20121;-75
2022/09/13 03:28:22;;;;;;;6.22;2.15;;;;;;;8.38;100.00;100886.50;4989381;28;20038;-73
2022/09/13 03:31:11;;;;;;;5.85;2.58;;;;;;;8.23;100.00;100864.00;4975199;28;20506;-77
2022/09/13 03:33:37;;;;;;;4.95;1.77;;;;;;;8.32;100.00;100883.66;5003865;28;20136;-75
2022/09/13 03:36:13;;;;;;;6.18;1.98;;;;;;;8.29;100.00;100887.47;4990518;28;20129;-75
2022/09/13 03:38:58;;;;;;;7.93;2.00;;;;;;;8.32;100.00;100887.16;4977948;28;20489;-75
2022/09/13 03:41:31;;;;;;;7.68;3.92;;;;;;;8.40;100.00;100885.56;5001123;28;20042;-75
2022/09/13 03:44:09;;;;;;;5.28;2.20;;;;;;;8.42;100.00;100884.41;5006869;28;20034;-76
2022/09/13 03:46:41;;;;;;;6.80;2.53;;;;;;;8.46;100.00;100879.56;5011085;28;20076;-75
2022/09/13 03:49:10;;;;;;;9.60;2.55;;;;;;;8.54;100.00;100884.97;4992536;28;20030;-75
2022/09/13 03:51:36;;;;;;;4.07;2.00;;;;;;;8.53;100.00;100891.34;5013244;28;20025;-74
2022/09/13 03:54:04;;;;;;;3.08;1.70;;;;;;;8.55;100.00;100898.22;4998492;28;20045;-74
2022/09/13 03:56:30;;;;;;;6.07;2.63;;;;;;;8.48;100.00;100885.63;5010212;28;20036;-74
2022/09/13 03:58:55;;;;;;;6.07;2.33;;;;;;;8.46;100.00;100890.28;4995620;28;20037;-75
2022/09/13 04:01:22;;;;;;;4.88;2.38;;;;;;;8.42;100.00;100880.91;5011723;28;20030;-74
2022/09/13 04:03:49;;;;;;;4.13;1.90;;;;;;;8.53;100.00;100886.81;5020259;28;20403;-74
2022/09/13 04:06:14;;;;;;;8.05;2.40;;;;;;;8.63;100.00;100875.97;5007328;28;20117;-74
2022/09/13 04:08:40;;;;;;;6.22;2.90;;;;;;;8.65;100.00;100879.31;4974310;28;20139;-75
2022/09/13 04:11:08;;;;;;;11.15;2.85;;;;;;;8.56;100.00;100885.66;5019751;28;20486;-74
2022/09/13 04:13:35;;;;;;;5.78;2.30;;;;;;;8.54;100.00;100882.28;5015309;28;20084;-76
2022/09/13 04:16:01;;;;;;;7.15;2.35;;;;;;;8.60;100.00;100884.34;5004750;28;20058;-75
2022/09/13 04:18:28;;;;;;;6.68;2.33;;;;;;;8.58;100.00;100873.78;4994479;28;20125;-75
2022/09/13 04:20:57;;;;;;;8.13;2.35;;;;;;;8.62;100.00;100868.91;4975646;28;20034;-75
2022/09/13 04:23:24;;;;;;;10.52;2.78;;;;;;;8.57;100.00;100874.78;5005096;28;20030;-74
2022/09/13 04:25:52;;;;;;;4.85;1.95;;;;;;;8.57;100.00;100866.75;4990136;28;20034;-75
2022/09/13 04:28:20;;;;;;;5.85;2.20;;;;;;;8.66;100.00;100864.09;5007263;28;20435;-76
2022/09/13 04:30:47;;;;;;;5.55;2.17;;;;;;;8.76;100.00;100865.66;4976292;28;20038;-75
2022/09/13 04:33:13;;;;;;;8.77;2.72;;;;;;;8.84;100.00;100853.25;5012232;28;20092;-75
2022/09/13 04:35:41;;;;;;;7.05;2.47;;;;;;;8.78;100.00;100858.25;5016492;28;20029;-76
2022/09/13 04:38:07;;;;;;;6.47;2.92;;;;;;;8.77;100.00;100843.19;4978611;28;20871;-75
2022/09/13 04:40:34;;;;;;;4.47;2.30;;;;;;;8.86;100.00;100859.31;5008765;28;20065;-74
2022/09/13 04:43:00;;;;;;;6.65;2.20;;;;;;;8.84;100.00;100850.56;5001624;28;20065;-76
2022/09/13 04:45:27;;;;;;;5.57;1.67;;;;;;;8.80;100.00;100850.91;5011544;28;20079;-73
2022/09/13 04:47:54;;;;;;;8.15;2.30;;;;;;;8.75;100.00;100855.06;5005757;28;20066;-75
2022/09/13 04:50:20;;;;;;;8.50;3.22;;;;;;;8.71;100.00;100845.69;4990863;28;20054;-76
2022/09/13 04:52:46;;;;;;;1.88;1.48;;;;;;;8.75;100.00;100849.72;5010338;28;20459;-76
2022/09/13 04:55:13;;;;;;;5.50;2.38;;;;;;;8.76;100.00;100836.16;5006181;28;20062;-76
2022/09/13 04:57:39;;;;;;;3.33;1.88;;;;;;;8.80;100.00;100842.03;5007351;28;20049;-76
2022/09/13 05:00:06;;;;;;;4.03;1.77;;;;;;;8.79;100.00;100840.34;5009213;28;20037;-76
2022/09/13 05:02:31;;;;;;;5.45;2.08;;;;;;;8.84;100.00;100840.72;5004716;28;20034;-74
2022/09/13 05:04:57;;;;;;;4.13;2.15;;;;;;;8.68;100.00;100809.31;5009178;28;20536;-77
2022/09/13 05:07:23;;;;;;;4.00;1.92;;;;;;;8.80;100.00;100834.81;5008724;28;20072;-74
2022/09/13 05:09:49;;;;;;;5.32;1.95;;;;;;;8.81;100.00;100846.38;4994611;28;20069;-75
2022/09/13 05:12:14;;;;;;;2.60;1.30;;;;;;;8.83;100.00;100848.91;4979624;28;20424;-75
2022/09/13 05:14:40;;;;;;;7.07;2.03;;;;;;;8.85;100.00;100852.28;4974314;28;20061;-75
2022/09/13 05:17:06;;;;;;;4.55;1.77;;;;;;;8.85;100.00;100854.97;4976078;28;20467;-77
2022/09/13 05:19:32;;;;;;;4.07;1.48;;;;;;;8.88;100.00;100852.78;5009935;28;20042;-75
2022/09/13 05:21:57;;;;;;;3.92;1.70;;;;;;;8.85;100.00;100861.16;4976041;28;20045;-75
2022/09/13 05:24:23;;;;;;;4.97;1.92;;;;;;;8.76;100.00;100854.94;4980016;28;20037;-74
2022/09/13 05:26:48;;;;;;;7.80;1.77;;;;;;;8.65;100.00;100857.03;4998435;28;20034;-74
2022/09/13 05:29:14;;;;;;;5.78;2.15;;;;;;;8.56;100.00;100858.84;5007067;28;20514;-76
2022/09/13 05:31:41;;;;;;;10.27;2.10;;;;;;;8.48;100.00;100858.81;4976357;28;20040;-74
2022/09/13 05:34:10;;;;;;;2.90;1.77;;;;;;;8.40;100.00;100851.56;4986891;28;20034;-75
2022/09/13 05:36:36;;;;;;;5.13;2.10;;;;;;;8.35;100.00;100859.22;4980712;28;20384;-75
2022/09/13 05:39:03;;;;;;;6.05;1.92;;;;;;;8.37;100.00;100855.38;4997586;28;20037;-75
2022/09/13 05:41:28;;;;;;;12.70;2.17;;;;;;;8.37;100.00;100854.53;5005185;28;20036;-76
2022/09/13 05:43:54;;;;;;;7.30;1.95;;;;;;;8.31;100.00;100850.66;4982329;28;20038;-75
2022/09/13 05:46:21;;;;;;;9.48;2.00;;;;;;;8.17;100.00;100845.88;4989977;28;20092;-77
2022/09/13 05:48:49;;;;;;;5.43;2.72;;;;;;;8.23;100.00;100868.50;5008866;28;20041;-76
2022/09/13 05:51:17;;;;;;;5.95;1.98;;;;;;;8.22;100.00;100861.47;4985726;28;20631;-75
2022/09/13 05:53:45;;;;;;;3.63;1.42;;;;;;;8.19;100.00;100867.97;5011750;28;20636;-75
2022/09/13 05:56:13;;;;;;;3.10;1.55;;;;;;;8.13;100.00;100863.28;4991433;28;20030;-74
2022/09/13 05:58:43;;;;;;;4.22;1.85;;;;;;;8.14;100.00;100872.97;5001540;28;20121;-74
2022/09/13 06:01:09;;;;;;;6.75;2.50;;;;;;;8.11;100.00;100859.91;4983367;28;20089;-75
2022/09/13 06:03:35;;;;;;;5.25;2.03;;;;;;;8.02;100.00;100871.53;4985312;28;20465;-73
2022/09/13 06:06:02;;;;;;;5.75;1.98;;;;;;;7.99;100.00;100870.03;4976980;28;20030;-77
2022/09/13 06:08:29;;;;;;;9.68;2.88;;;;;;;7.89;100.00;100862.09;5023214;28;20032;-75
2022/09/13 06:11:03;;;;;;;6.05;2.10;;;;;;;7.89;100.00;100875.47;5004241;28;20476;-75
2022/09/13 06:13:29;;;;;;;6.57;2.20;;;;;;;7.84;100.00;100874.28;4965879;28;20026;-76
2022/09/13 06:15:56;;;;;;;3.55;1.25;;;;;;;7.85;100.00;100868.75;4989501;28;20431;-75
2022/09/13 06:18:23;;;;;;;2.42;1.20;;;;;;;7.88;100.00;100860.41;5004343;28;20033;-73
2022/09/13 06:20:49;;;;;;;2.75;1.50;;;;;;;7.95;100.00;100870.50;4989355;28;20088;-75
2022/09/13 06:23:15;;;;;;;4.00;1.60;;;;;;;8.01;100.00;100876.06;4981911;28;20445;-76
2022/09/13 06:25:41;;;;;;;5.72;2.25;;;;;;;8.00;100.00;100878.91;5006481;28;20042;-75
2022/09/13 06:28:08;;;;;;;9.18;2.13;;;;;;;8.00;100.00;100882.41;4977780;28;20042;-77
2022/09/13 06:30:34;;;;;;;4.97;2.03;;;;;;;7.99;100.00;100880.75;5001542;28;20472;-75
2022/09/13 06:33:00;;;;;;;7.55;2.70;;;;;;;7.93;100.00;100884.88;4987718;28;20022;-77
2022/09/13 06:35:25;;;;;;;9.48;2.47;;;;;;;8.00;100.00;100886.94;5007350;28;20044;-75
2022/09/13 06:37:55;;;;;;;7.22;1.98;;;;;;;8.02;100.00;100882.25;5014385;28;20838;-75
2022/09/13 06:40:21;;;;;;;5.82;2.13;;;;;;;8.04;100.00;100873.06;4975235;28;20049;-77
2022/09/13 06:42:47;;;;;;;8.82;2.38;;;;;;;8.21;100.00;100889.28;5003281;28;20495;-75
2022/09/13 06:45:13;;;;;;;5.82;2.40;;;;;;;8.34;100.00;100887.00;5005907;28;20038;-77
2022/09/13 06:47:39;;;;;;;6.80;1.90;;;;;;;8.45;100.00;100889.44;5002447;28;20030;-75
2022/09/13 06:50:06;;;;;;;7.95;2.03;;;;;;;8.59;100.00;100893.38;4994471;28;20026;-75
2022/09/13 06:52:32;;;;;;;9.98;2.40;;;;;;;8.82;100.00;100900.88;5008695;28;20099;-75
2022/09/13 06:54:58;;;;;;;7.15;2.40;;;;;;;8.86;100.00;100895.00;4995997;28;20129;-75
2022/09/13 06:57:23;;;;;;;7.00;2.40;;;;;;;8.83;100.00;100897.16;4971918;28;20490;-75
2022/09/13 06:59:49;;;;;;;7.55;2.60;;;;;;;8.93;100.00;100889.84;4970503;28;20026;-76
2022/09/13 07:02:15;;;;;;;6.47;2.30;;;;;;;9.13;100.00;100893.94;4983956;28;21661;-76
2022/09/13 07:04:41;;;;;;;7.28;2.50;;;;;;;9.34;100.00;100900.69;4983388;28;20038;-75
2022/09/13 07:07:06;;;;;;;8.23;2.55;;;;;;;9.42;100.00;100892.66;5003818;28;20500;-76
2022/09/13 07:09:35;;;;;;;9.13;2.67;;;;;;;9.64;100.00;100902.75;5003179;28;20034;-76
2022/09/13 07:12:01;;;;;;;4.78;2.35;;;;;;;9.80;100.00;100907.31;5010679;28;20021;-77
2022/09/13 07:14:27;;;;;;;3.72;2.13;;;;;;;9.95;100.00;100920.06;5005486;28;20474;-74
2022/09/13 07:16:54;;;;;;;3.75;1.88;;;;;;;10.05;100.00;100920.72;4979097;28;20037;-75
2022/09/13 07:19:27;;;;;;;7.28;2.63;;;;;;;10.08;100.00;100915.00;4991367;28;20387;-76
2022/09/13 07:21:54;;;;;;;4.05;2.05;;;;;;;10.30;100.00;100914.38;5008362;28;20054;-75
2022/09/13 07:24:20;;;;;;;6.55;2.55;;;;;;;10.57;100.00;100912.28;5008041;28;20038;-76
2022/09/13 07:26:46;;;;;;;4.95;2.30;;;;;;;10.56;100.00;100908.78;5009246;28;20091;-76
2022/09/13 07:29:18;;;;;;;6.30;2.78;;;;;;;10.50;100.00;100908.59;4990487;28;20033;-74
2022/09/13 07:31:46;;;;;;;5.00;2.30;;;;;;;10.41;100.00;100909.66;4975104;28;20476;-74
2022/09/13 07:34:14;;;;;;;5.90;2.50;;;;;;;10.45;100.00;100919.91;5006979;28;20391;-76
2022/09/13 07:36:40;;;;;;;5.40;2.60;;;;;;;10.50;100.00;100916.66;4993611;28;20112;-76
2022/09/13 07:39:06;;;;;;;5.40;2.45;;;;;;;10.93;100.00;100904.63;5011517;28;20053;-74
2022/09/13 07:41:32;;;;;;;4.90;2.55;;;;;;;12.25;100.00;100921.59;4989611;28;20027;-74
2022/09/13 07:44:03;;;;;;;9.13;2.40;;;;;;;12.18;100.00;100922.53;4987149;28;20045;-74
2022/09/13 07:46:35;;;;;;;9.38;3.22;;;;;;;12.16;100.00;100897.59;4990262;28;20038;-78
2022/09/13 07:49:00;;;;;;;7.82;2.88;;;;;;;13.10;100.00;100917.63;5010436;28;20057;-74
2022/09/13 07:51:35;;;;;;;8.27;2.60;;;;;;;13.87;99.56;100910.81;4991045;28;20065;-75
2022/09/13 07:54:05;;;;;;;13.73;2.92;;;;;;;13.82;95.89;100911.38;5007281;28;20037;-76
2022/09/13 07:56:35;;;;;;;4.47;2.10;;;;;;;13.57;98.27;100918.19;5007245;28;20391;-74
2022/09/13 07:59:04;;;;;;;6.05;2.03;;;;;;;13.18;98.72;100906.72;5007967;28;20044;-77
2022/09/13 08:01:34;;;;;;;8.65;2.55;;;;;;;14.30;96.37;100911.56;5014731;28;20030;-76
2022/09/13 08:04:02;;;;;;;5.60;2.75;;;;;;;16.13;86.56;100906.50;5009926;28;20045;-75
2022/09/13 08:06:30;;;;;;;6.28;1.83;;;;;;;15.95;81.30;100926.09;4995034;28;20026;-75
2022/09/13 08:08:56;;;;;;;5.95;1.80;;;;;;;14.88;85.68;100924.91;5004421;28;20040;-74
2022/09/13 08:11:39;;;;;;;8.85;1.90;;;;;;;14.29;90.40;100919.91;4994410;28;20044;-75
2022/09/13 08:14:05;;;;;;;;;;;;;;;13.90;94.32;100928.50;4995349;28;20060;-75
2022/09/13 08:16:31;;;;;;;3.65;1.88;;;;;;;13.66;96.20;100929.72;4991681;28;19924;-75
2022/09/13 08:18:59;;;;;;;5.32;1.90;;;;;;;13.82;94.46;100913.25;4976412;28;20587;-85
2022/09/13 08:21:25;;;;;;;2.92;1.50;;;;;;;14.06;94.72;100915.56;4974395;28;20033;-81
2022/09/13 08:23:55;;;;;;;4.45;1.55;;;;;;;15.32;87.30;100910.09;4991410;28;20027;-78
2022/09/13 08:26:21;;;;;;;6.00;1.92;;;;;;;17.53;77.92;100917.00;4991685;28;20041;-80
2022/09/13 08:28:47;;;;;;;6.18;1.77;;;;;;;19.03;69.81;100910.72;5005180;28;20021;-80
2022/09/13 08:31:15;;;;;;;3.33;1.77;;;;;;;20.16;63.28;100909.97;5007664;28;20033;-82
2022/09/13 08:33:46;;;;;;;4.65;2.47;;;;;;;20.96;57.73;100907.69;4992184;28;20034;-80
2022/09/13 08:36:11;;;;;;;7.05;1.83;;;;;;;21.25;57.75;100903.91;4989158;28;20393;-80
2022/09/13 08:38:37;;;;;;;3.85;1.75;;;;;;;21.67;53.71;100909.13;5004927;28;20030;-80
2022/09/13 08:41:14;;;;;;;2.30;1.50;;;;;;;21.68;53.46;100893.53;5007970;28;20469;-80
2022/09/13 08:44:03;;;;;;;2.90;1.42;;;;;;;21.88;50.46;100912.22;4988315;28;20068;-80
2022/09/13 08:46:33;;;;;;;2.95;1.73;;;;;;;21.89;51.47;100916.63;4988626;28;20120;-77
2022/09/13 08:49:02;;;;;;;3.80;1.42;;;;;;;20.80;54.90;100906.53;4989193;28;20026;-79
2022/09/13 08:51:40;;;;;;;1.77;1.33;;;;;;;21.80;52.33;100909.88;5002806;28;20128;-77
2022/09/13 08:54:09;;;;;;;4.32;1.33;;;;;;;22.14;50.05;100921.69;5008176;28;20480;-78
2022/09/13 08:56:42;;;;;;;4.07;1.65;;;;;;;21.63;50.85;100907.94;4969622;28;20488;-77
2022/09/13 08:59:32;;;;;;;6.40;1.33;;;;;;;21.72;50.51;100908.38;5005171;28;20532;-78
2022/09/13 09:02:04;;;;;;;3.17;1.20;;;;;;;21.62;51.73;100903.56;4990350;28;20045;-78
2022/09/13 09:04:37;;;;;;;6.47;1.33;;;;;;;22.15;49.27;100912.41;5008788;28;20034;-77
2022/09/13 09:07:28;;;;;;;1.52;1.08;;;;;;;22.39;47.73;100908.44;4992771;28;20042;-77
2022/09/13 09:09:56;;;;;;;3.35;1.30;;;;;;;22.73;48.12;100910.28;5005138;28;20041;-77
2022/09/13 09:12:31;;;;;;;2.83;1.25;;;;;;;22.78;45.52;100881.03;4984052;28;20042;-78
2022/09/13 09:15:23;;;;;;;1.83;1.00;;;;;;;21.77;49.26;100892.03;4989744;28;20493;-78
2022/09/13 09:17:56;;;;;;;1.80;1.10;;;;;;;22.90;46.12;100910.25;4975070;28;20076;-78
2022/09/13 09:20:31;;;;;;;2.63;1.27;;;;;;;23.20;46.62;100904.31;5000626;28;20492;-77
2022/09/13 09:23:00;;;;;;;3.28;1.17;;;;;;;23.75;42.93;100900.56;5004359;28;20026;-79
2022/09/13 09:25:26;;;;;;;2.90;1.20;;;;;;;23.90;43.25;100908.13;4976059;28;20040;-77
2022/09/13 09:27:53;;;;;;;3.97;1.40;;;;;;;24.17;41.85;100910.81;4972589;28;20117;-77
2022/09/13 09:30:19;;;;;;;3.22;1.50;;;;;;;23.96;45.66;100923.53;5004759;28;20033;-79
2022/09/13 09:33:06;;;;;;;3.67;1.52;;;;;;;24.20;43.87;100924.00;4987604;28;20029;-78
2022/09/13 09:35:36;;;;;;;2.28;1.60;;;;;;;24.71;41.70;100904.31;4990175;28;20069;-79
2022/09/13 09:38:24;;;;;;;5.28;1.70;;;;;;;24.06;41.82;100918.13;4999668;28;20042;-77
2022/09/13 09:40:50;;;;;;;2.40;1.38;;;;;;;23.77;41.84;100917.59;4997877;28;20487;-77
2022/09/13 09:43:32;;;;;;;2.42;1.52;;;;;;;21.90;46.03;100918.28;4991805;28;20045;-77
2022/09/13 09:45:58;;;;;;;;;;;;;;;21.91;46.12;100920.78;5001236;28;20033;-78
2022/09/13 09:48:29;;;;;;;2.58;1.25;;;;;;;23.32;42.88;100913.25;4992216;28;20291;-78
2022/09/13 09:50:59;;;;;;;2.13;1.45;;;;;;;23.95;42.03;100927.38;4983668;28;20480;-79
2022/09/13 09:53:34;;;;;;;6.47;1.70;;;;;;;24.49;39.96;100910.78;4987455;28;20042;-78
2022/09/13 09:56:20;;;;;;;3.10;1.27;;;;;;;25.82;39.42;100915.97;5015787;28;20515;-77
2022/09/13 09:58:46;;;;;;;1.25;1.13;;;;;;;26.23;36.09;100905.84;4992092;28;20053;-78
2022/09/13 10:01:33;;;;;;;2.28;1.40;;;;;;;26.24;35.67;100907.47;5004298;28;20079;-79
2022/09/13 10:04:01;;;;;;;6.32;1.67;;;;;;;24.32;40.22;100913.66;4969068;28;20104;-77
2022/09/13 10:06:28;;;;;;;2.53;1.30;;;;;;;24.74;40.40;100906.53;5011212;28;20030;-82
2022/09/13 10:08:58;;;;;;;4.72;1.50;;;;;;;25.70;37.44;100910.75;4984532;28;20029;-83
2022/09/13 10:11:40;;;;;;;5.20;1.35;;;;;;;24.98;39.34;100893.16;5002166;28;20056;-82
2022/09/13 10:14:35;;;;;;;2.05;1.55;;;;;;;25.55;38.04;100906.03;5008509;28;20026;-82
2022/09/13 10:17:04;;;;;;;2.25;1.30;;;;;;;25.76;38.94;100917.91;4997651;28;20037;-82
2022/09/13 10:19:30;;;;;;;5.80;1.55;;;;;;;26.83;37.52;100914.28;5003426;28;20030;-82
2022/09/13 10:22:11;;;;;;;5.63;1.75;;;;;;;27.68;34.14;100923.53;5000406;28;20116;-82
2022/09/13 10:24:36;;;;;;;4.20;1.48;;;;;;;27.73;34.18;100891.22;4980250;28;20473;-83
2022/09/13 10:27:04;;;;;;;2.97;1.85;;;;;;;26.92;37.21;100901.56;5021837;28;20267;-82
2022/09/13 10:29:30;;;;;;;2.22;1.40;;;;;;;27.94;33.68;100905.69;4974442;28;20073;-82
2022/09/13 10:32:02;;;;;;;4.90;1.80;;;;;;;27.96;34.80;100903.47;5003218;28;20026;-83
2022/09/13 10:34:30;;;;;;;5.97;1.75;;;;;;;27.40;35.27;100876.25;5009846;28;20030;-83
2022/09/13 10:37:03;;;;;;;3.35;1.45;;;;;;;27.11;35.36;100900.94;4976664;28;20488;-82
2022/09/13 10:39:31;;;;;;;3.08;1.60;;;;;;;26.04;36.73;100907.50;4992852;28;20046;-82
2022/09/13 10:42:08;;;;;;;2.55;1.17;;;;;;;24.12;39.85;100903.34;4989638;28;20056;-84
2022/09/13 10:44:43;;;;;;;2.90;1.50;;;;;;;23.98;40.39;100891.16;4973409;28;20128;-82
2022/09/13 10:47:24;;;;;;;2.97;1.10;;;;;;;21.79;45.15;100900.00;4990750;28;20045;-82
2022/09/13 10:49:52;;;;;;;2.85;1.58;;;;;;;22.04;45.61;100900.44;4987085;28;20062;-82
2022/09/13 10:52:28;;;;;;;1.60;1.33;;;;;;;21.61;47.11;100898.31;4984788;28;20515;-82
2022/09/13 10:54:54;;;;;;;2.35;1.30;;;;;;;21.23;48.36;100894.31;5003517;28;20030;-82
2022/09/13 10:57:36;;;;;;;3.13;1.45;;;;;;;21.94;47.79;100903.84;5007490;28;20519;-82
2022/09/13 11:00:09;;;;;;;4.30;1.50;;;;;;;22.03;46.38;100878.78;4998988;28;20448;-82
2022/09/13 11:02:52;;;;;;;;;;;;;;;24.12;42.24;100906.09;4973329;28;20049;-82
2022/09/13 11:06:00;;;;;;;6.00;1.77;;;;;;;26.61;37.92;100895.31;5009859;28;19963;-82
2022/09/13 11:09:24;;;;;;;2.47;1.70;;;;;;;27.09;36.97;100898.44;4976579;28;20041;-82
2022/09/13 11:12:18;;;;;;;3.63;1.75;;;;;;;26.71;36.05;100895.28;4911246;29;20031;-82
2022/09/13 11:15:14;;;;;;;2.92;1.50;;;;;;;24.88;40.71;100890.38;4883509;29;20044;-83
2022/09/13 11:17:55;;;;;;;3.17;1.95;;;;;;;25.09;39.02;100891.31;5005960;28;20046;-82
2022/09/13 11:20:49;;;;;;;2.90;1.65;;;;;;;27.08;36.53;100894.03;5001655;28;20038;-83
2022/09/13 11:23:27;;;;;;;4.30;1.55;;;;;;;26.65;34.72;100887.31;5011840;28;20030;-82
2022/09/13 11:25:52;;;;;;;4.32;1.90;;;;;;;25.72;38.52;100882.91;5004158;28;20053;-83
2022/09/13 11:28:47;;;;;;;3.85;2.00;;;;;;;27.21;35.07;100889.88;5008208;28;20034;-83
2022/09/13 11:31:28;;;;;;;4.05;2.10;;;;;;;27.93;34.95;100897.72;5006339;28;20080;-83
2022/09/13 11:34:20;;;;;;;5.75;2.05;;;;;;;27.61;35.42;100886.03;5022817;28;20124;-82
2022/09/13 11:37:04;;;;;;;3.92;1.70;;;;;;;24.55;38.97;100890.47;4964152;28;20058;-82
2022/09/13 11:39:56;;;;;;;2.13;1.52;;;;;;;23.21;42.48;100884.88;5008751;28;20026;-83
2022/09/13 11:42:31;;;;;;;2.72;1.50;;;;;;;22.56;44.07;100882.91;4959117;28;20061;-83
2022/09/13 11:45:21;;;;;;;6.53;2.05;;;;;;;24.66;41.45;100883.09;5005726;28;20038;-83
2022/09/13 11:47:58;;;;;;;7.38;2.38;;;;;;;26.44;38.16;100883.75;5019263;28;20030;-83